createdAt,value
2023-03-24T00:01:25.714Z,100956.81
2023-03-24T00:03:53.512Z,100958.53
2023-03-24T00:06:23.003Z,100956.13
2023-03-24T00:08:51.356Z,100963.19
2023-03-24T00:11:21.427Z,100962.84
2023-03-24T00:13:50.593Z,100959.19
2023-03-24T00:16:19.910Z,100959.06
2023-03-24T00:18:54.024Z,100965.28
2023-03-24T00:21:24.991Z,100965.38
2023-03-24T00:23:55.406Z,100969.38
2023-03-24T00:26:25.435Z,100970.25
2023-03-24T00:28:55.602Z,100963.03
2023-03-24T00:31:24.658Z,100961.84
2023-03-24T00:33:53.876Z,100962.63
2023-03-24T00:36:24.561Z,100962.75
2023-03-24T00:38:53.860Z,100956.06
2023-03-24T00:41:25.083Z,100954.47
2023-03-24T00:43:56.755Z,100961.66
2023-03-24T00:46:28.338Z,100959.47
2023-03-24T00:49:12.057Z,100958.63
2023-03-24T00:51:41.845Z,100968.72
2023-03-24T00:54:11.460Z,100962.81
2023-03-24T00:56:40.972Z,100962.34
2023-03-24T00:59:10.658Z,100954.66
2023-03-24T01:01:41.262Z,100968.53
2023-03-24T01:04:10.657Z,100970.22
2023-03-24T01:06:39.499Z,100978.28
2023-03-24T01:09:08.251Z,100976.22
2023-03-24T01:11:41.512Z,100969.44
2023-03-24T01:14:10.570Z,100958.56
2023-03-24T01:16:38.409Z,100957.97
2023-03-24T01:19:08.736Z,100956.28
2023-03-24T01:21:38.739Z,100948.63
2023-03-24T01:24:06.565Z,100949.34
2023-03-24T01:26:35.438Z,100941.91
2023-03-24T01:29:03.241Z,100922.97
2023-03-24T01:31:31.179Z,100921.41
2023-03-24T01:33:59.232Z,100918.97
2023-03-24T01:36:27.338Z,100915.53
2023-03-24T01:38:55.542Z,100911.44
2023-03-24T01:41:23.600Z,100917.06
2023-03-24T01:43:51.716Z,100921.84
2023-03-24T01:46:21.374Z,100913.34
2023-03-24T01:49:01.790Z,100917.56
2023-03-24T01:51:40.412Z,100923.31
2023-03-24T01:54:16.268Z,100915.97
2023-03-24T01:56:50.916Z,100914.09
2023-03-24T01:59:23.671Z,100915.00
2023-03-24T02:02:10.269Z,100919.69
2023-03-24T02:04:54.210Z,100920.19
2023-03-24T02:07:53.172Z,100919.44
2023-03-24T02:10:23.320Z,100912.91
2023-03-24T02:12:51.404Z,100917.53
2023-03-24T02:15:20.291Z,100914.06
2023-03-24T02:17:54.878Z,100910.75
2023-03-24T02:20:28.740Z,100909.91
2023-03-24T02:23:24.176Z,100907.41
2023-03-24T02:26:10.745Z,100901.41
2023-03-24T02:28:53.984Z,100903.63
2023-03-24T02:31:56.956Z,100895.69
2023-03-24T02:34:55.236Z,100891.16
2023-03-24T02:37:45.336Z,100893.38
2023-03-24T02:40:24.583Z,100890.41
2023-03-24T02:43:29.826Z,100893.88
2023-03-24T02:46:28.878Z,100888.84
2023-03-24T02:49:16.241Z,100882.84
2023-03-24T02:51:54.251Z,100883.09
2023-03-24T02:54:33.295Z,100873.47
2023-03-24T02:57:09.232Z,100878.22
2023-03-24T03:00:36.101Z,100875.19
2023-03-24T03:03:12.190Z,100877.28
2023-03-24T03:05:48.295Z,100883.22
2023-03-24T03:08:18.351Z,100880.41
2023-03-24T03:10:48.835Z,100879.16
2023-03-24T03:13:24.955Z,100880.59
2023-03-24T03:15:56.797Z,100887.19
2023-03-24T03:18:33.305Z,100882.59
2023-03-24T03:21:08.020Z,100891.44
2023-03-24T03:23:44.765Z,100882.19
2023-03-24T03:26:17.526Z,100873.28
2023-03-24T03:28:57.982Z,100875.53
2023-03-24T03:31:35.297Z,100875.22
2023-03-24T03:34:19.256Z,100867.94
2023-03-24T03:36:55.057Z,100872.03
2023-03-24T03:39:29.770Z,100871.16
2023-03-24T03:42:00.712Z,100871.03
2023-03-24T03:44:28.905Z,100870.19
2023-03-24T03:46:56.522Z,100865.22
2023-03-24T03:49:34.288Z,100865.97
2023-03-24T03:52:02.278Z,100875.78
2023-03-24T03:54:31.982Z,100867.59
2023-03-24T03:57:00.464Z,100857.47
2023-03-24T03:59:35.498Z,100858.06
2023-03-24T04:02:20.042Z,100849.59
2023-03-24T04:05:05.969Z,100850.44
2023-03-24T04:08:31.501Z,100860.25
2023-03-24T04:11:41.504Z,100863.09
2023-03-24T04:14:11.843Z,100856.38
2023-03-24T04:17:06.277Z,100861.25
2023-03-24T04:19:48.006Z,100860.19
2023-03-24T04:22:38.490Z,100857.47
2023-03-24T04:25:50.090Z,100860.41
2023-03-24T04:28:22.339Z,100862.56
2023-03-24T04:30:58.337Z,100864.75
2023-03-24T04:33:45.744Z,100872.16
2023-03-24T04:36:27.518Z,100870.47
2023-03-24T04:39:28.365Z,100869.84
2023-03-24T04:42:02.309Z,100868.56
2023-03-24T04:44:33.296Z,100870.25
2023-03-24T04:47:23.079Z,100868.28
2023-03-24T04:50:31.120Z,100865.47
2023-03-24T04:53:01.848Z,100856.44
2023-03-24T04:55:48.367Z,100854.59
2023-03-24T04:58:19.662Z,100860.81
2023-03-24T05:00:48.454Z,100859.03
2023-03-24T05:03:18.897Z,100873.47
2023-03-24T05:05:49.602Z,100877.56
2023-03-24T05:08:18.993Z,100876.09
2023-03-24T05:10:48.242Z,100878.72
2023-03-24T05:13:17.101Z,100888.59
2023-03-24T05:15:53.978Z,100890.50
2023-03-24T05:18:43.591Z,100886.06
2023-03-24T05:21:12.205Z,100889.53
2023-03-24T05:23:40.687Z,100898.56
2023-03-24T05:26:10.362Z,100903.09
2023-03-24T05:28:58.509Z,100900.38
2023-03-24T05:31:26.175Z,100898.50
2023-03-24T05:34:03.562Z,100897.31
2023-03-24T05:36:34.537Z,100898.75
2023-03-24T05:39:02.813Z,100897.78
2023-03-24T05:41:42.501Z,100898.66
2023-03-24T05:44:10.094Z,100903.25
2023-03-24T05:46:38.357Z,100907.00
2023-03-24T05:49:06.101Z,100901.00
2023-03-24T05:51:37.884Z,100906.78
2023-03-24T05:54:08.687Z,100914.31
2023-03-24T05:56:48.295Z,100917.38
2023-03-24T05:59:15.982Z,100928.25
2023-03-24T06:02:12.600Z,100929.72
2023-03-24T06:04:57.842Z,100930.19
2023-03-24T06:07:26.987Z,100928.28
2023-03-24T06:09:58.390Z,100926.28
2023-03-24T06:12:28.071Z,100923.28
2023-03-24T06:15:05.167Z,100923.91
2023-03-24T06:17:34.211Z,100915.69
2023-03-24T06:20:15.680Z,100916.38
2023-03-24T06:23:07.205Z,100917.22
2023-03-24T06:25:47.713Z,100918.00
2023-03-24T06:28:26.153Z,100921.78
2023-03-24T06:30:59.034Z,100924.50
2023-03-24T06:33:34.405Z,100913.97
2023-03-24T06:36:02.837Z,100919.38
2023-03-24T06:38:32.166Z,100926.47
2023-03-24T06:41:01.375Z,100918.06
2023-03-24T06:43:30.215Z,100927.66
2023-03-24T06:45:59.332Z,100927.78
2023-03-24T06:48:28.912Z,100928.78
2023-03-24T06:51:03.475Z,100926.91
2023-03-24T06:53:31.604Z,100928.06
2023-03-24T06:55:59.680Z,100923.06
2023-03-24T06:58:34.666Z,100929.72
2023-03-24T07:01:07.583Z,100931.31
2023-03-24T07:03:36.900Z,100934.81
2023-03-24T07:06:24.830Z,100935.25
2023-03-24T07:08:56.892Z,100944.59
2023-03-24T07:11:28.633Z,100943.06
2023-03-24T07:13:59.975Z,100947.25
2023-03-24T07:16:29.684Z,100955.78
2023-03-24T07:19:19.527Z,100948.19
2023-03-24T07:21:51.974Z,100957.22
2023-03-24T07:24:30.565Z,100950.13
2023-03-24T07:27:09.257Z,100959.66
2023-03-24T07:29:37.586Z,100949.13
2023-03-24T07:32:15.555Z,100950.00
2023-03-24T07:34:45.889Z,100956.38
2023-03-24T07:37:13.872Z,100952.91
2023-03-24T07:39:41.539Z,100951.56
2023-03-24T07:42:11.798Z,100948.38
2023-03-24T07:44:56.281Z,100943.16
2023-03-24T07:47:27.016Z,100939.53
2023-03-24T07:49:57.485Z,100937.13
2023-03-24T07:52:25.242Z,100940.03
2023-03-24T07:54:55.902Z,100934.41
2023-03-24T07:57:50.260Z,100936.56
2023-03-24T08:00:19.929Z,100941.84
2023-03-24T08:03:00.193Z,100934.19
2023-03-24T08:05:48.803Z,100934.06
2023-03-24T08:08:22.294Z,100933.78
2023-03-24T08:10:51.082Z,100930.56
2023-03-24T08:13:19.429Z,100934.34
2023-03-24T08:15:47.119Z,100934.34
2023-03-24T08:18:16.256Z,100941.72
2023-03-24T08:20:44.224Z,100940.19
2023-03-24T08:23:12.771Z,100933.09
2023-03-24T08:25:40.404Z,100941.44
2023-03-24T08:28:08.530Z,100930.28
2023-03-24T08:30:36.392Z,100933.72
2023-03-24T08:33:05.003Z,100929.69
2023-03-24T08:35:35.058Z,100944.47
2023-03-24T08:38:06.697Z,100936.72
2023-03-24T08:40:37.252Z,100939.84
2023-03-24T08:43:11.284Z,100944.50
2023-03-24T08:45:38.934Z,100948.16
2023-03-24T08:48:08.166Z,100945.88
2023-03-24T08:50:39.952Z,100946.78
2023-03-24T08:53:09.594Z,100954.16
2023-03-24T08:55:41.749Z,100947.06
2023-03-24T08:58:17.758Z,100949.56
2023-03-24T09:00:47.692Z,100949.75
2023-03-24T09:03:22.524Z,100946.56
2023-03-24T09:05:51.014Z,100940.78
2023-03-24T09:08:20.172Z,100947.72
2023-03-24T09:10:47.881Z,100941.00
2023-03-24T09:13:16.717Z,100939.97
2023-03-24T09:15:52.906Z,100938.00
2023-03-24T09:18:22.224Z,100941.53
2023-03-24T09:20:51.187Z,100944.97
2023-03-24T09:23:20.306Z,100942.25
2023-03-24T09:25:53.877Z,100948.16
2023-03-24T09:28:23.147Z,100936.06
2023-03-24T09:30:51.335Z,100942.56
2023-03-24T09:33:19.709Z,100940.38
2023-03-24T09:35:56.014Z,100940.03
2023-03-24T09:38:25.678Z,100934.72
2023-03-24T09:41:03.034Z,100942.34
2023-03-24T09:43:41.041Z,100939.09
2023-03-24T09:46:20.463Z,100941.34
2023-03-24T09:48:59.829Z,100935.25
2023-03-24T09:51:30.121Z,100925.50
2023-03-24T09:54:19.692Z,100927.06
2023-03-24T09:56:51.285Z,100925.91
2023-03-24T09:59:21.374Z,100929.56
2023-03-24T10:01:49.822Z,100932.41
2023-03-24T10:04:24.529Z,100936.88
2023-03-24T10:07:03.919Z,100944.03
2023-03-24T10:09:35.080Z,100938.63
2023-03-24T10:12:21.224Z,100938.16
2023-03-24T10:15:10.023Z,100941.75
2023-03-24T10:18:08.202Z,100931.63
2023-03-24T10:20:55.265Z,100929.94
2023-03-24T10:23:37.948Z,100913.56
2023-03-24T10:26:32.491Z,100907.69
2023-03-24T10:29:24.993Z,100900.13
2023-03-24T10:31:59.676Z,100902.69
2023-03-24T10:34:33.857Z,100899.00
2023-03-24T10:37:04.328Z,100907.13
2023-03-24T10:39:44.282Z,100898.16
2023-03-24T10:42:21.879Z,100895.84
2023-03-24T10:44:51.524Z,100892.94
2023-03-24T10:47:26.380Z,100876.66
2023-03-24T10:50:14.331Z,100890.31
2023-03-24T10:52:48.924Z,100891.63
2023-03-24T10:55:19.771Z,100894.41
2023-03-24T10:57:51.836Z,100898.31
2023-03-24T11:00:29.718Z,100891.72
2023-03-24T11:03:02.034Z,100881.16
2023-03-24T11:05:36.872Z,100880.38
2023-03-24T11:08:38.731Z,100866.91
2023-03-24T11:11:32.500Z,100870.59
2023-03-24T11:14:04.598Z,100867.41
2023-03-24T11:16:36.767Z,100850.91
2023-03-24T11:19:06.975Z,100859.94
2023-03-24T11:21:38.129Z,100842.41
2023-03-24T11:24:15.721Z,100853.16
2023-03-24T11:27:02.301Z,100849.19
2023-03-24T11:29:33.187Z,100846.66
2023-03-24T11:32:03.591Z,100858.94
2023-03-24T11:34:42.315Z,100853.66
2023-03-24T11:37:23.493Z,100859.59
2023-03-24T11:40:12.547Z,100846.47
2023-03-24T11:42:45.465Z,100837.69
2023-03-24T11:45:28.114Z,100832.88
2023-03-24T11:47:58.954Z,100827.13
2023-03-24T11:50:33.650Z,100826.31
2023-03-24T11:53:11.938Z,100821.28
2023-03-24T11:56:01.034Z,100817.41
2023-03-24T11:58:55.139Z,100806.06
2023-03-24T12:01:22.661Z,100810.88
2023-03-24T12:03:51.256Z,100810.13
2023-03-24T12:06:40.213Z,100799.75
2023-03-24T12:09:34.955Z,100804.72
2023-03-24T12:12:15.678Z,100791.09
2023-03-24T12:14:44.198Z,100800.41
2023-03-24T12:17:14.447Z,100807.03
2023-03-24T12:19:42.129Z,100797.13
2023-03-24T12:22:31.448Z,100795.25
2023-03-24T12:25:11.664Z,100791.81
2023-03-24T12:28:00.828Z,100787.34
2023-03-24T12:30:44.490Z,100774.44
2023-03-24T12:33:15.861Z,100778.88
2023-03-24T12:36:09.082Z,100767.06
2023-03-24T12:39:06.905Z,100760.84
2023-03-24T12:41:46.800Z,100770.53
2023-03-24T12:44:20.567Z,100773.06
2023-03-24T12:47:10.287Z,100764.72
2023-03-24T12:50:02.664Z,100754.59
2023-03-24T12:53:06.687Z,100758.56
2023-03-24T12:55:44.961Z,100762.50
2023-03-24T12:58:21.825Z,100747.34
2023-03-24T13:01:21.396Z,100745.69
2023-03-24T13:04:32.353Z,100750.31
2023-03-24T13:07:07.382Z,100744.25
2023-03-24T13:09:41.791Z,100729.38
2023-03-24T13:12:21.822Z,100719.31
2023-03-24T13:14:54.006Z,100711.38
2023-03-24T13:17:39.066Z,100717.63
2023-03-24T13:20:13.607Z,100710.72
2023-03-24T13:22:42.921Z,100707.31
2023-03-24T13:25:40.853Z,100694.97
2023-03-24T13:28:13.529Z,100705.19
2023-03-24T13:30:43.191Z,100705.75
2023-03-24T13:33:26.724Z,100695.47
2023-03-24T13:36:33.376Z,100700.19
2023-03-24T13:39:07.030Z,100686.28
2023-03-24T13:41:39.911Z,100695.78
2023-03-24T13:44:19.781Z,100689.31
2023-03-24T13:47:05.948Z,100682.22
2023-03-24T13:49:34.337Z,100669.50
2023-03-24T13:52:06.439Z,100682.03
2023-03-24T13:54:37.988Z,100678.66
2023-03-24T13:57:12.926Z,100681.81
2023-03-24T14:00:02.248Z,100672.78
2023-03-24T14:02:46.613Z,100658.84
2023-03-24T14:05:26.547Z,100656.53
2023-03-24T14:08:13.205Z,100652.38
2023-03-24T14:10:45.732Z,100654.78
2023-03-24T14:13:13.887Z,100642.50
2023-03-24T14:15:46.410Z,100652.22
2023-03-24T14:18:37.544Z,100640.56
2023-03-24T14:21:07.854Z,100637.06
2023-03-24T14:23:37.707Z,100635.72
2023-03-24T14:26:21.601Z,100645.47
2023-03-24T14:28:52.957Z,100641.91
2023-03-24T14:31:29.871Z,100634.16
2023-03-24T14:34:03.713Z,100635.19
2023-03-24T14:36:41.182Z,100626.91
2023-03-24T14:39:37.042Z,100623.75
2023-03-24T14:42:28.780Z,100619.09
2023-03-24T14:44:58.687Z,100618.91
2023-03-24T14:47:32.100Z,100607.16
2023-03-24T14:50:10.650Z,100606.69
2023-03-24T14:52:51.270Z,100605.06
2023-03-24T14:55:20.073Z,100596.94
2023-03-24T14:58:04.454Z,100603.03
2023-03-24T15:00:51.764Z,100590.88
2023-03-24T15:03:41.535Z,100596.91
2023-03-24T15:06:15.987Z,100601.41
2023-03-24T15:08:52.858Z,100607.47
2023-03-24T15:11:33.833Z,100603.94
2023-03-24T15:14:05.365Z,100609.78
2023-03-24T15:16:36.457Z,100620.19
2023-03-24T15:19:25.394Z,100612.28
2023-03-24T15:22:06.477Z,100630.19
2023-03-24T15:24:37.663Z,100622.06
2023-03-24T15:27:08.273Z,100621.28
2023-03-24T15:29:42.151Z,100614.00
2023-03-24T15:32:22.721Z,100611.50
2023-03-24T15:34:56.663Z,100604.06
2023-03-24T15:37:30.842Z,100614.13
2023-03-24T15:40:08.995Z,100615.50
2023-03-24T15:42:46.701Z,100615.41
2023-03-24T15:45:30.000Z,100616.78
2023-03-24T15:47:59.245Z,100613.94
2023-03-24T15:50:38.860Z,100615.94
2023-03-24T15:53:23.919Z,100611.66
2023-03-24T15:56:06.499Z,100613.94
2023-03-24T15:59:15.227Z,100615.69
2023-03-24T16:01:45.530Z,100610.25
2023-03-24T16:04:15.922Z,100611.50
2023-03-24T16:06:53.862Z,100622.81
2023-03-24T16:09:27.723Z,100624.31
2023-03-24T16:11:56.566Z,100624.69
2023-03-24T16:14:29.895Z,100614.47
2023-03-24T16:17:00.871Z,100609.25
2023-03-24T16:19:29.270Z,100613.44
2023-03-24T16:21:57.941Z,100614.13
2023-03-24T16:24:26.012Z,100612.13
2023-03-24T16:26:54.347Z,100620.31
2023-03-24T16:29:24.338Z,100628.13
2023-03-24T16:31:56.072Z,100626.13
2023-03-24T16:34:24.639Z,100617.50
2023-03-24T16:36:54.650Z,100612.03
2023-03-24T16:39:25.742Z,100619.00
2023-03-24T16:41:53.781Z,100618.66
2023-03-24T16:44:22.495Z,100616.53
2023-03-24T16:46:53.894Z,100623.16
2023-03-24T16:49:23.215Z,100619.84
2023-03-24T16:51:53.153Z,100613.19
2023-03-24T16:54:21.790Z,100614.00
2023-03-24T16:56:50.041Z,100618.00
2023-03-24T16:59:17.686Z,100615.81
2023-03-24T17:01:46.366Z,100623.81
2023-03-24T17:04:17.092Z,100613.69
2023-03-24T17:06:52.911Z,100615.66
2023-03-24T17:09:22.189Z,100610.31
2023-03-24T17:11:56.056Z,100620.69
2023-03-24T17:14:25.075Z,100619.03
2023-03-24T17:16:53.790Z,100627.88
2023-03-24T17:19:24.918Z,100625.19
2023-03-24T17:22:02.336Z,100621.41
2023-03-24T17:24:38.114Z,100627.06
2023-03-24T17:27:13.572Z,100621.91
2023-03-24T17:29:42.323Z,100623.25
2023-03-24T17:32:11.794Z,100618.41
2023-03-24T17:34:42.845Z,100618.28
2023-03-24T17:37:11.341Z,100607.94
2023-03-24T17:39:40.472Z,100606.97
2023-03-24T17:42:08.622Z,100609.94
2023-03-24T17:44:36.345Z,100604.47
2023-03-24T17:47:05.006Z,100609.31
2023-03-24T17:49:33.863Z,100620.78
2023-03-24T17:52:01.967Z,100619.41
2023-03-24T17:54:30.533Z,100608.25
2023-03-24T17:56:59.040Z,100611.91
2023-03-24T17:59:27.560Z,100617.06
2023-03-24T18:01:55.718Z,100615.25
2023-03-24T18:04:23.993Z,100606.91
2023-03-24T18:06:51.833Z,100605.53
2023-03-24T18:09:19.928Z,100598.88
2023-03-24T18:11:47.979Z,100607.34
2023-03-24T18:14:16.535Z,100607.84
2023-03-24T18:16:45.580Z,100599.69
2023-03-24T18:19:13.676Z,100595.22
2023-03-24T18:21:42.755Z,100603.69
2023-03-24T18:24:12.141Z,100608.53
2023-03-24T18:26:40.676Z,100613.91
2023-03-24T18:29:08.805Z,100609.28
2023-03-24T18:31:37.234Z,100595.28
2023-03-24T18:34:05.194Z,100597.75
2023-03-24T18:36:32.946Z,100607.03
2023-03-24T18:39:07.127Z,100610.72
2023-03-24T18:41:39.913Z,100616.69
2023-03-24T18:44:11.527Z,100618.00
2023-03-24T18:46:40.413Z,100612.34
2023-03-24T18:49:13.734Z,100617.13
2023-03-24T18:51:42.318Z,100614.28
2023-03-24T18:54:13.151Z,100605.75
2023-03-24T18:56:41.924Z,100611.63
2023-03-24T18:59:11.856Z,100606.00
2023-03-24T19:01:40.145Z,100603.94
2023-03-24T19:04:09.340Z,100604.59
2023-03-24T19:06:37.326Z,100603.53
2023-03-24T19:09:05.750Z,100594.94
2023-03-24T19:11:33.936Z,100598.44
2023-03-24T19:14:02.343Z,100604.72
2023-03-24T19:16:31.160Z,100603.84
2023-03-24T19:19:00.277Z,100592.63
2023-03-24T19:21:28.184Z,100600.75
2023-03-24T19:23:57.208Z,100595.97
2023-03-24T19:26:26.162Z,100600.03
2023-03-24T19:28:54.469Z,100592.75
2023-03-24T19:31:23.139Z,100601.84
2023-03-24T19:33:52.589Z,100606.81
2023-03-24T19:36:20.466Z,100601.03
2023-03-24T19:38:48.586Z,100603.47
2023-03-24T19:41:16.805Z,100602.09
2023-03-24T19:43:44.965Z,100605.09
2023-03-24T19:46:13.784Z,100598.47
2023-03-24T19:48:41.544Z,100597.50
2023-03-24T19:51:09.231Z,100597.09
2023-03-24T19:53:37.339Z,100607.63
2023-03-24T19:56:06.810Z,100604.53
2023-03-24T19:58:34.946Z,100601.28
2023-03-24T20:01:03.498Z,100600.13
2023-03-24T20:03:32.005Z,100598.69
2023-03-24T20:06:05.132Z,100609.63
2023-03-24T20:08:33.342Z,100607.66
2023-03-24T20:11:03.700Z,100606.63
2023-03-24T20:13:32.316Z,100603.25
2023-03-24T20:15:59.997Z,100603.78
2023-03-24T20:18:28.748Z,100608.72
2023-03-24T20:20:59.873Z,100617.88
2023-03-24T20:23:28.760Z,100616.44
2023-03-24T20:25:59.932Z,100620.38
2023-03-24T20:28:28.588Z,100617.34
2023-03-24T20:31:01.840Z,100616.75
2023-03-24T20:33:30.264Z,100618.72
2023-03-24T20:35:59.474Z,100626.13
2023-03-24T20:38:27.510Z,100622.56
2023-03-24T20:41:05.242Z,100618.56
2023-03-24T20:43:36.204Z,100619.09
2023-03-24T20:46:07.762Z,100616.00
2023-03-24T20:48:36.954Z,100618.41
2023-03-24T20:51:05.975Z,100627.22
2023-03-24T20:53:35.917Z,100629.19
2023-03-24T20:56:06.874Z,100626.53
2023-03-24T20:58:37.657Z,100633.50
2023-03-24T21:01:09.929Z,100631.81
2023-03-24T21:03:38.418Z,100625.59
2023-03-24T21:06:10.335Z,100629.69
2023-03-24T21:08:38.131Z,100631.06
2023-03-24T21:11:06.293Z,100621.97
2023-03-24T21:13:37.684Z,100623.47
2023-03-24T21:16:08.488Z,100620.22
2023-03-24T21:18:37.845Z,100620.06
2023-03-24T21:21:06.872Z,100617.47
2023-03-24T21:23:39.125Z,100617.09
2023-03-24T21:26:18.025Z,100620.22
2023-03-24T21:28:46.028Z,100619.47
2023-03-24T21:31:21.589Z,100610.81
2023-03-24T21:33:51.075Z,100603.16
2023-03-24T21:36:20.862Z,100600.19
2023-03-24T21:38:50.023Z,100603.59
2023-03-24T21:41:19.729Z,100612.44
2023-03-24T21:43:51.316Z,100612.06
2023-03-24T21:46:21.892Z,100616.47
2023-03-24T21:48:51.939Z,100616.00
2023-03-24T21:51:34.445Z,100616.78
2023-03-24T21:54:04.758Z,100617.19
2023-03-24T21:56:34.545Z,100616.66
2023-03-24T21:59:02.854Z,100614.50
2023-03-24T22:01:34.106Z,100611.47
2023-03-24T22:04:03.544Z,100594.03
2023-03-24T22:06:37.782Z,100597.38
2023-03-24T22:09:08.370Z,100595.00
2023-03-24T22:11:42.587Z,100597.00
2023-03-24T22:14:11.351Z,100595.16
2023-03-24T22:16:39.812Z,100607.25
2023-03-24T22:19:07.900Z,100597.63
2023-03-24T22:21:36.357Z,100594.88
2023-03-24T22:24:06.097Z,100595.09
2023-03-24T22:26:34.724Z,100594.81
2023-03-24T22:29:03.509Z,100597.09
2023-03-24T22:31:31.719Z,100592.50
2023-03-24T22:34:00.339Z,100592.91
2023-03-24T22:36:28.436Z,100583.94
2023-03-24T22:38:56.553Z,100581.59
2023-03-24T22:41:25.133Z,100594.06
2023-03-24T22:43:52.709Z,100589.75
2023-03-24T22:46:22.360Z,100588.53
2023-03-24T22:48:50.484Z,100587.28
2023-03-24T22:51:19.598Z,100581.13
2023-03-24T22:53:48.461Z,100582.00
2023-03-24T22:56:17.087Z,100593.78
2023-03-24T22:58:44.723Z,100590.56
2023-03-24T23:01:12.479Z,100588.63
2023-03-24T23:03:40.780Z,100582.88
2023-03-24T23:06:11.092Z,100587.75
2023-03-24T23:08:40.283Z,100584.66
2023-03-24T23:11:09.115Z,100586.38
2023-03-24T23:13:36.912Z,100588.19
2023-03-24T23:16:05.753Z,100585.22
2023-03-24T23:18:34.208Z,100582.09
2023-03-24T23:21:07.891Z,100580.38
2023-03-24T23:23:36.940Z,100583.38
2023-03-24T23:26:05.889Z,100595.22
2023-03-24T23:28:34.811Z,100593.41
2023-03-24T23:31:03.088Z,100593.66
2023-03-24T23:33:30.874Z,100595.34
2023-03-24T23:35:59.325Z,100593.66
2023-03-24T23:38:27.590Z,100594.13
2023-03-24T23:40:55.707Z,100607.22
2023-03-24T23:43:23.875Z,100594.50
2023-03-24T23:45:56.929Z,100596.31
2023-03-24T23:48:25.658Z,100603.16
2023-03-24T23:51:01.662Z,100590.88
2023-03-24T23:53:30.802Z,100593.41
2023-03-24T23:56:02.070Z,100587.22
2023-03-24T23:58:33.562Z,100587.66
